CNT7 weather

Picton Airport
Prince Edward County, Ontario, Canada

Public forecast

Using degrees Celsius for public forecast. Weather courtesy of forecast.io.

METAR (pilot weather report)

Closest report is CFB Trenton, 18.5 nm (34.3 km) WNW. Retrieved 2019/05/21 11:00 UTC (58 minutes ago):

CYTR 211100Z 28008KT 15SM FEW040 09/04 A3001 RMK SC1 SLP164

TAF (pilot weather forecast)

Closest forecast is CFB Trenton, 18.5 nm (34.3 km) WNW. Retrieved 2019/05/21 06:33 UTC (5 hours ago):

TAF CYTR 210530Z 2106/2206 30008KT P6SM FEW020 SCT060 BECMG 2112/2114 33012G22KT FEW030 FM212300 33010KT P6SM FEW040 BECMG 2204/2206 33005KT RMK NXT FCST BY 211200Z